Weather History for KAPY - February, 2013

Change the Weather History Date:

Saturday, February 9, 2013

  Actual Average (KLRD) Record (KLRD)
Temperature  
Mean Temperature 72 °F 60 °F  
Max Temperature 85 °F 71 °F 98 °F (1960)
Min Temperature 60 °F 49 °F 23 °F (1974)
Degree Days  
Heating Degree Days 0 7  
Month to date heating degree days 66  
Since 1 July heating degree days 745  
Cooling Degree Days 8 2  
Month to date cooling degree days 14  
Year to date cooling degree days 42  
Growing Degree Days 22 (Base 50)    
Moisture  
Dew Point 60 °F    
Average Humidity 70    
Maximum Humidity 94    
Minimum Humidity 37    
Precipitation  
Precipitation 0.02 in 0.03 in 0.75 in (1911)
Month to date precipitation 0.29  
Year to date precipitation 1.19  
Sea Level Pressure  
Sea Level Pressure 29.88 in    
Wind  
Wind Speed 11 mph (SE)    
Max Wind Speed 20 mph    
Max Gust Speed 29 mph    
Visibility 9 miles    
Events Rain    
T = Trace of Precipitation, MM = Missing Value Source: NWS Daily Summary

Daily Weather History Graph

Daily Weather History Graph

Search for Another Location

Airport or City:

Trip Planner

Search our weather history database for the weather conditions in past years. The results will help you decide how hot, cold, wet, or windy it might be!

Date:

Astronomy

Feb. 09, 2013 Rise Set
Actual Time 7:17 AM CST 6:25 PM CST
Civil Twilight 6:53 AM CST 6:49 PM CST
Nautical Twilight 6:26 AM CST 7:16 PM CST
Astronomical Twilight 5:58 AM CST 7:43 PM CST
Moon 6:31 AM CST (2/9) 6:06 PM CST (2/9)
Length of Visible Light 11h 55m
Length of Day
11h 07m
Waning Crescent, 0% of the Moon is Illuminated
Feb 9
Waning Crescent
Feb 10
New
Feb 17
First Quarter
Feb 25
Full
Mar 4
Last Quarter

Hourly Weather History & Observations

Time (CST) Temp. Heat Index Dew Point Humidity Pressure Visibility Wind Dir Wind Speed Gust Speed Precip Events Conditions
12:15 AM 61.7 °F - 52.0 °F 70% 30.03 in 10.0 mi ESE 12.7 mph - N/A   Overcast
12:35 AM 60.8 °F - 52.9 °F 75% 30.03 in 10.0 mi ESE 13.8 mph - N/A   Mostly Cloudy
12:55 AM 60.8 °F - 53.4 °F 77% 30.03 in 10.0 mi ESE 11.5 mph - N/A   Mostly Cloudy
1:15 AM 60.8 °F - 54.5 °F 80% 30.02 in 10.0 mi ESE 10.4 mph - N/A   Overcast
1:35 AM 61.3 °F - 54.9 °F 79% 30.02 in 10.0 mi SE 11.5 mph - N/A   Overcast
1:55 AM 61.7 °F - 55.6 °F 80% 30.02 in 10.0 mi ESE 10.4 mph - N/A   Overcast
2:15 AM 61.7 °F - 56.3 °F 82% 30.01 in 10.0 mi ESE 11.5 mph - N/A   Overcast
2:35 AM 62.1 °F - 56.5 °F 82% 30.00 in 10.0 mi East 10.4 mph - N/A   Overcast
2:55 AM 62.6 °F - 56.5 °F 80% 30.00 in 10.0 mi ESE 10.4 mph - N/A   Overcast
3:15 AM 62.8 °F - 56.5 °F 80% 30.00 in 10.0 mi ESE 10.4 mph - N/A   Overcast
3:35 AM 62.8 °F - 56.7 °F 80% 29.99 in 10.0 mi ESE 8.1 mph - N/A   Overcast
3:55 AM 63.0 °F - 56.8 °F 80% 29.98 in 10.0 mi East 10.4 mph - N/A   Overcast
4:15 AM 63.1 °F - 57.2 °F 81% 29.98 in 10.0 mi East 10.4 mph - N/A   Overcast
4:35 AM 63.1 °F - 57.4 °F 81% 29.98 in 10.0 mi East 9.2 mph - N/A   Overcast
4:55 AM 63.3 °F - 57.6 °F 81% 29.97 in 10.0 mi ESE 8.1 mph - N/A   Overcast
5:15 AM 63.5 °F - 57.6 °F 81% 29.97 in 10.0 mi East 6.9 mph - N/A   Overcast
5:35 AM 63.7 °F - 58.1 °F 82% 29.97 in 10.0 mi East 6.9 mph - N/A   Overcast
5:55 AM 63.5 °F - 58.3 °F 83% 29.97 in 10.0 mi ESE 5.8 mph - N/A Rain Light Rain
6:15 AM 63.5 °F - 59.9 °F 88% 29.97 in 7.0 mi ESE 9.2 mph - N/A   Light Drizzle
6:35 AM 63.5 °F - 60.4 °F 90% 29.97 in 7.0 mi East 9.2 mph - N/A   Light Drizzle
6:55 AM 63.5 °F - 60.8 °F 91% 29.97 in 5.0 mi East 3.5 mph - N/A   Light Drizzle
7:15 AM 63.0 °F - 60.8 °F 93% 29.98 in 5.0 mi East 4.6 mph - 0.01 in Rain Rain
7:35 AM 63.0 °F - 60.8 °F 93% 29.98 in 5.0 mi East 3.5 mph - 0.01 in   Overcast
7:55 AM 63.1 °F - 61.0 °F 93% 29.98 in 4.0 mi North - - 0.01 in   Heavy Drizzle
8:15 AM 63.5 °F - 61.3 °F 93% 29.98 in 3.0 mi East 3.5 mph - 0.01 in   Overcast
8:35 AM 63.7 °F - 61.9 °F 94% 29.99 in 4.0 mi East 4.6 mph - 0.01 in   Overcast
8:55 AM 64.0 °F - 62.1 °F 93% 29.99 in 4.0 mi East 4.6 mph - 0.01 in   Overcast
9:15 AM 64.4 °F - 62.6 °F 94% 29.99 in 4.0 mi East 5.8 mph - N/A   Overcast
9:35 AM 64.8 °F - 62.8 °F 93% 29.99 in 4.0 mi ESE 4.6 mph - N/A   Overcast
9:55 AM 66.7 °F - 64.6 °F 93% 29.99 in 5.0 mi SE 9.2 mph - N/A   Overcast
10:15 AM 68.2 °F - 64.8 °F 89% 29.99 in 5.0 mi SE 6.9 mph - N/A   Overcast
10:35 AM 69.3 °F - 63.5 °F 82% 29.98 in 7.0 mi SE 10.4 mph - N/A   Overcast
10:55 AM 70.9 °F - 64.2 °F 79% 29.98 in 7.0 mi SE 8.1 mph 16.1 mph N/A   Overcast
11:15 AM 72.3 °F - 63.5 °F 74% 29.97 in 10.0 mi SE 13.8 mph 18.4 mph N/A   Overcast
11:35 AM 72.9 °F - 63.1 °F 71% 29.96 in 10.0 mi SSE 12.7 mph 20.7 mph N/A   Overcast
11:55 AM 73.8 °F - 63.1 °F 69% 29.94 in 10.0 mi SSE 11.5 mph 20.7 mph N/A   Overcast
12:15 PM 76.1 °F - 62.6 °F 63% 29.93 in 10.0 mi SSE 13.8 mph 19.6 mph N/A   Overcast
12:35 PM 76.1 °F - 62.8 °F 63% 29.91 in 10.0 mi SSE 15.0 mph 19.6 mph N/A   Overcast
12:55 PM 77.9 °F - 61.9 °F 58% 29.89 in 10.0 mi SSE 11.5 mph 18.4 mph N/A   Overcast
1:15 PM 78.3 °F - 61.7 °F 57% 29.87 in 10.0 mi SSE 10.4 mph 18.4 mph N/A   Overcast
1:35 PM 80.8 °F 81.9 °F 62.1 °F 53% 29.85 in 10.0 mi SSE 11.5 mph 19.6 mph N/A   Overcast
1:55 PM 81.5 °F 82.2 °F 61.3 °F 50% 29.83 in 10.0 mi SSE 12.7 mph 19.6 mph N/A   Overcast
2:15 PM 80.8 °F 81.6 °F 61.0 °F 51% 29.82 in 10.0 mi SSE 10.4 mph - N/A   Overcast
2:35 PM 83.3 °F 83.7 °F 61.2 °F 47% 29.80 in 10.0 mi SSE 12.7 mph 16.1 mph N/A   Scattered Clouds
2:55 PM 84.0 °F 84.2 °F 60.6 °F 45% 29.79 in 10.0 mi SE 10.4 mph 17.3 mph N/A   Clear
3:15 PM 85.1 °F 84.6 °F 59.0 °F 41% 29.77 in 10.0 mi SSE 9.2 mph 18.4 mph N/A   Clear
3:35 PM 84.7 °F 83.9 °F 57.4 °F 39% 29.76 in 10.0 mi SE 11.5 mph 21.9 mph N/A   Clear
3:55 PM 84.6 °F 83.7 °F 57.4 °F 39% 29.74 in 10.0 mi South 13.8 mph 21.9 mph N/A   Clear
4:15 PM 85.1 °F 84.1 °F 57.0 °F 38% 29.74 in 10.0 mi SSE 15.0 mph 21.9 mph N/A   Clear
4:35 PM 85.6 °F 84.5 °F 56.5 °F 37% 29.73 in 10.0 mi SSE 13.8 mph 20.7 mph N/A   Clear
4:55 PM 84.4 °F 83.5 °F 57.2 °F 39% 29.73 in 10.0 mi SE 15.0 mph 21.9 mph N/A   Clear
5:15 PM 84.7 °F 83.9 °F 57.4 °F 39% 29.72 in 10.0 mi SE 12.7 mph 23.0 mph N/A   Clear
5:35 PM 84.7 °F 83.9 °F 57.4 °F 39% 29.72 in 10.0 mi SE 16.1 mph 24.2 mph N/A   Clear
5:55 PM 83.7 °F 83.1 °F 57.9 °F 41% 29.72 in 10.0 mi SSE 13.8 mph 19.6 mph N/A   Clear
6:15 PM 83.3 °F 82.9 °F 58.1 °F 42% 29.71 in 10.0 mi SE 13.8 mph 19.6 mph N/A   Clear
6:35 PM 81.3 °F 82.3 °F 62.2 °F 52% 29.71 in 10.0 mi SE 15.0 mph 20.7 mph N/A   Clear
6:55 PM 80.2 °F 81.6 °F 63.1 °F 56% 29.72 in 10.0 mi SE 13.8 mph 25.3 mph N/A   Scattered Clouds
7:15 PM 79.2 °F - 63.9 °F 59% 29.72 in 10.0 mi SE 16.1 mph 28.8 mph N/A   Scattered Clouds
7:35 PM 78.1 °F - 64.0 °F 62% 29.73 in 10.0 mi SE 15.0 mph 23.0 mph N/A   Scattered Clouds
7:55 PM 77.2 °F - 64.4 °F 65% 29.73 in 10.0 mi SE 18.4 mph 27.6 mph N/A   Scattered Clouds
8:15 PM 76.6 °F - 64.4 °F 66% 29.74 in 10.0 mi SE 19.6 mph 28.8 mph N/A   Scattered Clouds
8:35 PM 75.9 °F - 64.4 °F 67% 29.74 in 10.0 mi SE 16.1 mph 28.8 mph N/A   Clear
8:55 PM 75.2 °F - 64.4 °F 69% 29.76 in 10.0 mi SE 15.0 mph 24.2 mph N/A   Clear
9:15 PM 74.5 °F - 64.4 °F 71% 29.76 in 10.0 mi SE 13.8 mph 26.5 mph N/A   Clear
9:35 PM 74.1 °F - 64.6 °F 72% 29.76 in 10.0 mi SE 16.1 mph 23.0 mph N/A   Scattered Clouds
9:55 PM 73.8 °F - 64.8 °F 73% 29.76 in 10.0 mi SE 16.1 mph 21.9 mph N/A   Mostly Cloudy
10:15 PM 73.4 °F - 64.6 °F 74% 29.77 in 10.0 mi SE 15.0 mph 20.7 mph N/A   Mostly Cloudy
10:35 PM 73.4 °F - 64.4 °F 73% 29.76 in 10.0 mi SE 15.0 mph 20.7 mph N/A   Overcast
10:55 PM 73.0 °F - 64.6 °F 75% 29.76 in 10.0 mi SE 11.5 mph - N/A   Mostly Cloudy
11:15 PM 72.9 °F - 64.4 °F 75% 29.76 in 10.0 mi SE 11.5 mph 19.6 mph N/A   Mostly Cloudy
11:35 PM 72.7 °F - 64.4 °F 75% 29.76 in 10.0 mi SE 10.4 mph 16.1 mph N/A   Mostly Cloudy
11:55 PM 72.5 °F - 64.4 °F 76% 29.76 in 10.0 mi SE 12.7 mph 17.3 mph N/A   Overcast